createdAt,value
2022-09-07T00:00:15.245Z,6.07
2022-09-07T00:03:02.855Z,5.47
2022-09-07T00:05:51.642Z,5.87
2022-09-07T00:08:39.714Z,5.60
2022-09-07T00:11:26.742Z,5.97
2022-09-07T00:14:13.834Z,6.10
2022-09-07T00:17:00.714Z,5.77
2022-09-07T00:19:48.182Z,5.50
2022-09-07T00:22:35.266Z,6.00
2022-09-07T00:25:22.234Z,5.60
2022-09-07T00:28:09.462Z,6.10
2022-09-07T00:30:56.490Z,9.23
2022-09-07T00:33:44.263Z,6.13
2022-09-07T00:36:31.260Z,5.17
2022-09-07T00:39:18.370Z,6.10
2022-09-07T00:42:05.440Z,5.37
2022-09-07T00:45:18.845Z,5.30
2022-09-07T00:48:15.082Z,5.03
2022-09-07T00:51:06.816Z,5.60
2022-09-07T00:54:02.883Z,5.33
2022-09-07T00:56:52.788Z,5.27
2022-09-07T00:59:44.179Z,5.10
2022-09-07T01:02:31.408Z,4.63
2022-09-07T01:05:28.037Z,4.80
2022-09-07T01:08:15.345Z,4.93
2022-09-07T01:11:02.729Z,5.40
2022-09-07T01:13:52.013Z,5.27
2022-09-07T01:16:47.983Z,4.67
2022-09-07T01:19:53.533Z,5.37
2022-09-07T01:22:58.762Z,4.67
2022-09-07T01:26:35.203Z,5.43
2022-09-07T01:30:04.598Z,4.80
2022-09-07T01:33:21.090Z,5.20
2022-09-07T01:36:17.871Z,5.00
2022-09-07T01:39:05.985Z,5.53
2022-09-07T01:42:01.226Z,4.90
2022-09-07T01:44:55.558Z,5.40
2022-09-07T01:47:49.723Z,4.53
2022-09-07T01:50:44.825Z,5.13
2022-09-07T01:53:46.989Z,4.73
2022-09-07T01:56:38.905Z,4.80
2022-09-07T01:59:32.273Z,4.60
2022-09-07T02:02:24.174Z,5.17
2022-09-07T02:05:18.432Z,5.37
2022-09-07T02:08:11.241Z,5.13
2022-09-07T02:11:06.774Z,4.97
2022-09-07T02:14:07.536Z,5.10
2022-09-07T02:17:13.528Z,6.67
2022-09-07T02:20:23.509Z,5.70
2022-09-07T02:23:17.206Z,5.30
2022-09-07T02:26:10.334Z,4.90
2022-09-07T02:28:57.749Z,5.00
2022-09-07T02:31:44.743Z,5.00
2022-09-07T02:34:32.527Z,5.10
2022-09-07T02:37:20.503Z,4.40
2022-09-07T02:40:08.562Z,4.97
2022-09-07T02:42:56.870Z,5.40
2022-09-07T02:45:52.656Z,5.57
2022-09-07T02:48:58.039Z,4.50
2022-09-07T02:51:59.626Z,6.57
2022-09-07T02:55:02.227Z,5.33
2022-09-07T02:58:34.284Z,4.90
2022-09-07T03:01:29.895Z,5.07
2022-09-07T03:04:56.728Z,4.90
2022-09-07T03:07:59.144Z,4.93
2022-09-07T03:10:46.742Z,4.83
2022-09-07T03:13:34.186Z,4.60
2022-09-07T03:16:21.163Z,5.23
2022-09-07T03:19:08.186Z,5.23
2022-09-07T03:21:55.019Z,5.13
2022-09-07T03:24:43.217Z,5.07
2022-09-07T03:27:31.540Z,5.23
2022-09-07T03:30:18.593Z,5.07
2022-09-07T03:33:06.109Z,5.47
2022-09-07T03:36:01.538Z,5.33
2022-09-07T03:38:48.477Z,5.40
2022-09-07T03:41:35.317Z,5.40
2022-09-07T03:44:22.189Z,5.77
2022-09-07T03:47:09.109Z,5.33
2022-09-07T03:49:55.978Z,5.83
2022-09-07T03:52:42.818Z,6.03
2022-09-07T03:55:29.674Z,5.83
2022-09-07T03:58:16.565Z,5.53
2022-09-07T04:01:11.978Z,6.23
2022-09-07T04:04:02.639Z,5.50
2022-09-07T04:06:50.046Z,5.67
2022-09-07T04:09:36.888Z,5.77
2022-09-07T04:12:25.987Z,6.40
2022-09-07T04:15:12.823Z,5.67
2022-09-07T04:18:00.596Z,6.00
2022-09-07T04:20:48.007Z,5.70
2022-09-07T04:23:37.030Z,5.50
2022-09-07T04:26:32.264Z,6.17
2022-09-07T04:29:19.095Z,6.60
2022-09-07T04:32:05.938Z,5.93
2022-09-07T04:34:54.343Z,5.83
2022-09-07T04:37:41.443Z,5.53
2022-09-07T04:40:28.444Z,5.77
2022-09-07T04:43:15.290Z,6.03
2022-09-07T04:46:07.333Z,5.33
2022-09-07T04:48:56.090Z,5.87
2022-09-07T04:51:44.217Z,6.60
2022-09-07T04:54:31.137Z,6.83
2022-09-07T04:57:21.624Z,6.43
2022-09-07T05:00:10.199Z,6.30
2022-09-07T05:02:57.066Z,5.37
2022-09-07T05:05:44.946Z,5.47
2022-09-07T05:08:46.698Z,4.70
2022-09-07T05:11:33.585Z,4.80
2022-09-07T05:14:20.462Z,4.60
2022-09-07T05:17:07.722Z,5.07
2022-09-07T05:19:54.887Z,4.93
2022-09-07T05:22:41.806Z,5.07
2022-09-07T05:25:29.763Z,4.47
2022-09-07T05:28:19.443Z,4.37
2022-09-07T05:37:10.312Z,5.23
2022-09-07T05:39:57.262Z,4.80
2022-09-07T05:42:44.338Z,4.63
2022-09-07T05:45:31.185Z,4.93
2022-09-07T05:48:18.098Z,4.53
2022-09-07T05:51:06.070Z,4.20
2022-09-07T05:53:52.928Z,4.43
2022-09-07T05:56:40.048Z,4.90
2022-09-07T05:59:26.923Z,4.70
2022-09-07T06:02:15.406Z,4.07
2022-09-07T06:05:02.536Z,4.10
2022-09-07T06:07:49.436Z,4.53
2022-09-07T06:10:44.950Z,4.67
2022-09-07T06:13:32.230Z,4.50
2022-09-07T06:16:20.244Z,4.43
2022-09-07T06:19:08.203Z,4.30
2022-09-07T06:21:55.160Z,4.20
2022-09-07T06:24:42.010Z,3.30
2022-09-07T06:27:29.328Z,3.73
2022-09-07T06:30:16.342Z,4.33
2022-09-07T06:33:03.276Z,3.93
2022-09-07T06:36:02.050Z,3.73
2022-09-07T06:38:49.659Z,3.73
2022-09-07T06:44:49.350Z,4.13
2022-09-07T06:47:36.898Z,4.23
2022-09-07T06:50:23.784Z,3.77
2022-09-07T06:56:19.015Z,4.00
2022-09-07T06:59:05.869Z,4.27
2022-09-07T07:01:52.786Z,3.63
2022-09-07T07:04:41.168Z,3.70
2022-09-07T07:07:28.282Z,3.90
2022-09-07T07:10:15.257Z,3.83
2022-09-07T07:13:02.102Z,4.23
2022-09-07T07:15:49.490Z,3.83
2022-09-07T07:18:37.162Z,3.33
2022-09-07T07:21:24.263Z,3.57
2022-09-07T07:24:11.155Z,3.63
2022-09-07T07:26:58.021Z,3.60
2022-09-07T07:29:45.756Z,4.17
2022-09-07T07:32:32.610Z,3.73
2022-09-07T07:35:19.508Z,3.80
2022-09-07T07:44:21.634Z,3.93
2022-09-07T07:47:08.476Z,3.27
2022-09-07T07:50:30.787Z,3.60
2022-09-07T07:56:10.362Z,3.30
2022-09-07T07:58:57.282Z,3.60
2022-09-07T08:01:44.214Z,3.60
2022-09-07T08:04:32.799Z,3.63
2022-09-07T08:07:19.768Z,4.13
2022-09-07T08:10:07.509Z,3.70
2022-09-07T08:12:54.389Z,4.03
2022-09-07T08:15:44.530Z,3.80
2022-09-07T08:18:33.899Z,3.80
2022-09-07T08:21:20.702Z,4.07
2022-09-07T08:24:07.608Z,3.83
2022-09-07T08:26:54.420Z,4.47
2022-09-07T08:29:41.393Z,3.77
2022-09-07T08:32:31.362Z,3.83
2022-09-07T08:35:19.454Z,3.77
2022-09-07T08:38:06.295Z,3.83
2022-09-07T08:40:53.459Z,3.70
2022-09-07T08:43:40.198Z,3.90
2022-09-07T08:46:33.081Z,3.37
2022-09-07T08:49:30.638Z,3.50
2022-09-07T08:52:24.667Z,4.30
2022-09-07T08:55:27.703Z,3.40
2022-09-07T08:58:49.570Z,3.43
2022-09-07T09:01:41.623Z,3.67
2022-09-07T09:04:30.747Z,3.70
2022-09-07T09:07:40.273Z,3.67
2022-09-07T09:10:48.255Z,4.07
2022-09-07T09:14:06.288Z,3.47
2022-09-07T09:16:59.585Z,3.73
2022-09-07T09:20:20.781Z,4.00
2022-09-07T09:23:13.337Z,3.70
2022-09-07T09:26:08.088Z,3.87
2022-09-07T09:28:55.104Z,3.60
2022-09-07T09:31:42.280Z,3.50
2022-09-07T09:34:33.384Z,3.43
2022-09-07T09:37:34.356Z,3.90
2022-09-07T09:40:25.221Z,4.03
2022-09-07T09:43:21.179Z,3.80
2022-09-07T09:46:24.032Z,3.83
2022-09-07T09:49:22.337Z,3.50
2022-09-07T09:52:41.917Z,4.07
2022-09-07T09:55:36.132Z,3.87
2022-09-07T10:04:56.131Z,3.90
2022-09-07T10:07:52.013Z,3.90
2022-09-07T10:10:50.202Z,4.13
2022-09-07T10:13:44.145Z,5.90
2022-09-07T10:16:41.129Z,5.80
2022-09-07T10:19:36.797Z,6.43
2022-09-07T10:22:34.755Z,5.20
2022-09-07T10:25:33.736Z,4.13
2022-09-07T10:28:23.886Z,4.20
2022-09-07T10:31:20.031Z,5.80
2022-09-07T10:34:55.457Z,3.73
2022-09-07T10:38:08.083Z,4.60
2022-09-07T10:41:04.200Z,4.10
2022-09-07T10:43:51.915Z,4.10
2022-09-07T10:46:59.615Z,4.63
2022-09-07T10:50:23.623Z,4.13
2022-09-07T10:53:44.189Z,7.70
2022-09-07T10:56:38.871Z,5.07
2022-09-07T11:00:07.442Z,5.53
2022-09-07T11:03:30.876Z,3.67
2022-09-07T11:06:27.347Z,4.53
2022-09-07T11:09:48.378Z,4.53
2022-09-07T11:12:39.413Z,4.20
2022-09-07T11:15:30.721Z,3.70
2022-09-07T11:18:30.216Z,4.30
2022-09-07T11:24:39.006Z,4.43
2022-09-07T11:27:33.509Z,5.40
2022-09-07T11:30:45.691Z,4.50
2022-09-07T11:37:17.683Z,4.63
2022-09-07T11:40:14.215Z,3.57
2022-09-07T11:43:24.440Z,3.87
2022-09-07T11:46:41.337Z,4.60
2022-09-07T11:49:30.464Z,4.53
2022-09-07T11:52:38.920Z,3.77
2022-09-07T11:55:29.739Z,3.97
2022-09-07T11:58:22.781Z,3.83
2022-09-07T12:01:27.924Z,3.97
2022-09-07T12:04:29.292Z,3.60
2022-09-07T12:07:24.289Z,4.00
2022-09-07T12:10:23.323Z,3.60
2022-09-07T12:13:44.531Z,3.53
2022-09-07T12:16:59.255Z,3.50
2022-09-07T12:19:46.289Z,3.53
2022-09-07T12:22:34.258Z,4.07
2022-09-07T12:25:21.251Z,3.50
2022-09-07T12:28:21.323Z,3.80
2022-09-07T12:31:12.378Z,3.33
2022-09-07T12:34:31.775Z,3.67
2022-09-07T12:37:33.841Z,3.60
2022-09-07T12:40:36.018Z,3.43
2022-09-07T12:43:22.751Z,3.07
2022-09-07T12:46:37.763Z,3.10
2022-09-07T12:49:39.319Z,3.53
2022-09-07T12:52:47.662Z,3.53
2022-09-07T12:56:19.412Z,3.60
2022-09-07T12:59:31.201Z,3.90
2022-09-07T13:02:36.984Z,3.00
2022-09-07T13:05:57.628Z,3.40
2022-09-07T13:09:31.041Z,3.03
2022-09-07T13:15:48.596Z,3.23
2022-09-07T13:18:35.848Z,4.10
2022-09-07T13:21:32.582Z,3.00
2022-09-07T13:24:49.198Z,3.40
2022-09-07T13:27:49.188Z,2.93
2022-09-07T13:30:36.080Z,3.20
2022-09-07T13:33:28.790Z,3.60
2022-09-07T13:36:37.675Z,3.23
2022-09-07T13:39:25.427Z,3.60
2022-09-07T13:42:18.942Z,3.10
2022-09-07T13:45:25.821Z,3.50
2022-09-07T13:48:38.340Z,4.63
2022-09-07T13:51:33.911Z,4.83
2022-09-07T13:54:39.545Z,4.97
2022-09-07T13:57:37.994Z,5.77
2022-09-07T14:00:24.898Z,6.03
2022-09-07T14:03:16.642Z,4.23
2022-09-07T14:06:21.414Z,7.27
2022-09-07T14:09:16.994Z,3.57
2022-09-07T14:12:13.444Z,4.33
2022-09-07T14:15:32.288Z,3.97
2022-09-07T14:18:32.832Z,4.73
2022-09-07T14:21:20.178Z,3.57
2022-09-07T14:24:20.418Z,4.63
2022-09-07T14:27:35.343Z,6.47
2022-09-07T14:30:28.169Z,15.37
2022-09-07T14:33:17.305Z,17.50
2022-09-07T14:36:23.157Z,14.90
2022-09-07T14:39:12.224Z,14.93
2022-09-07T14:41:59.441Z,11.93
2022-09-07T14:44:46.787Z,9.10
2022-09-07T14:47:40.500Z,6.23
2022-09-07T14:50:32.966Z,6.67
2022-09-07T14:53:36.331Z,8.10
2022-09-07T14:56:25.575Z,4.63
2022-09-07T14:59:39.337Z,4.30
2022-09-07T15:02:33.450Z,5.30
2022-09-07T15:05:23.095Z,5.63
2022-09-07T15:08:20.051Z,4.67
2022-09-07T15:11:34.028Z,4.63
2022-09-07T15:14:20.978Z,4.87
2022-09-07T15:17:43.523Z,31.57
2022-09-07T15:20:43.948Z,169.67
2022-09-07T15:23:30.727Z,282.77
2022-09-07T15:29:28.463Z,85.67
2022-09-07T15:32:18.012Z,49.43
2022-09-07T15:35:05.514Z,28.33
2022-09-07T15:38:02.513Z,18.73
2022-09-07T15:41:21.940Z,15.00
2022-09-07T15:44:05.492Z,8.90
2022-09-07T15:50:00.959Z,6.47
2022-09-07T15:52:50.909Z,9.60
2022-09-07T15:55:39.730Z,9.20
2022-09-07T15:58:28.296Z,11.90
2022-09-07T16:04:32.284Z,6.47
2022-09-07T16:07:22.360Z,6.10
2022-09-07T16:10:15.391Z,7.30
2022-09-07T16:13:10.912Z,6.73
2022-09-07T16:15:59.830Z,8.17
2022-09-07T16:18:48.550Z,7.50
2022-09-07T16:21:41.056Z,8.17
2022-09-07T16:24:29.694Z,8.00
2022-09-07T16:27:19.779Z,12.23
2022-09-07T16:30:07.121Z,10.27
2022-09-07T16:32:54.194Z,6.00
2022-09-07T16:35:40.996Z,9.97
2022-09-07T16:38:44.911Z,7.47
2022-09-07T16:41:33.234Z,6.40
2022-09-07T16:44:20.272Z,8.00
2022-09-07T16:47:08.717Z,7.07
2022-09-07T16:49:56.257Z,8.60
2022-09-07T16:52:43.074Z,7.03
2022-09-07T16:55:29.948Z,6.80
2022-09-07T17:01:26.926Z,6.93
2022-09-07T17:04:13.865Z,8.30
2022-09-07T17:07:00.797Z,8.13
2022-09-07T17:09:47.789Z,6.07
2022-09-07T17:12:34.566Z,6.90
2022-09-07T17:15:21.963Z,8.37
2022-09-07T17:18:08.799Z,8.80
2022-09-07T17:20:58.487Z,10.13
2022-09-07T17:23:51.916Z,8.33
2022-09-07T17:26:42.835Z,7.50
2022-09-07T17:29:36.982Z,7.37
2022-09-07T17:32:26.893Z,7.37
2022-09-07T17:35:13.880Z,7.93
2022-09-07T17:38:01.176Z,5.83
2022-09-07T17:40:48.231Z,6.83
2022-09-07T17:43:45.509Z,6.93
2022-09-07T17:46:32.700Z,6.93
2022-09-07T17:49:19.527Z,8.17
2022-09-07T17:52:06.396Z,6.03
2022-09-07T17:54:55.357Z,6.30
2022-09-07T17:57:42.353Z,6.97
2022-09-07T18:00:29.891Z,8.73
2022-09-07T18:03:16.883Z,8.27
2022-09-07T18:06:04.010Z,6.53
2022-09-07T18:08:50.848Z,6.87
2022-09-07T18:11:46.184Z,7.20
2022-09-07T18:14:33.499Z,7.93
2022-09-07T18:17:20.354Z,7.17
2022-09-07T18:20:07.511Z,10.07
2022-09-07T18:22:54.366Z,7.87
2022-09-07T18:25:41.145Z,6.90
2022-09-07T18:31:35.134Z,6.70
2022-09-07T18:34:22.596Z,8.73
2022-09-07T18:37:11.947Z,7.10
2022-09-07T18:39:58.816Z,8.07
2022-09-07T18:42:46.447Z,7.40
2022-09-07T18:45:33.566Z,7.50
2022-09-07T18:48:18.899Z,7.40
2022-09-07T18:51:04.633Z,7.53
2022-09-07T18:53:49.915Z,7.37
2022-09-07T18:56:35.023Z,7.07
2022-09-07T18:59:20.250Z,7.03
2022-09-07T19:02:08.067Z,8.47
2022-09-07T19:07:59.544Z,7.30
2022-09-07T19:10:45.030Z,6.27
2022-09-07T19:13:30.375Z,6.87
2022-09-07T19:16:18.324Z,7.07
2022-09-07T19:19:07.034Z,6.67
2022-09-07T19:21:52.732Z,8.37
2022-09-07T19:24:37.662Z,6.23
2022-09-07T19:27:22.587Z,7.17
2022-09-07T19:30:08.158Z,7.00
2022-09-07T19:32:53.790Z,7.10
2022-09-07T19:35:38.867Z,7.47
2022-09-07T19:38:23.951Z,7.47
2022-09-07T19:41:12.822Z,6.37
2022-09-07T19:43:58.202Z,6.17
2022-09-07T19:46:44.418Z,6.13
2022-09-07T19:49:30.154Z,6.17
2022-09-07T19:52:15.379Z,5.40
2022-09-07T19:55:02.656Z,6.93
2022-09-07T19:57:47.753Z,5.37
2022-09-07T20:00:32.778Z,6.20
2022-09-07T20:03:18.219Z,5.63
2022-09-07T20:06:16.593Z,6.23
2022-09-07T20:09:02.063Z,6.23
2022-09-07T20:11:48.100Z,6.93
2022-09-07T20:14:33.137Z,5.40
2022-09-07T20:17:18.083Z,5.77
2022-09-07T20:20:04.155Z,6.03
2022-09-07T20:22:49.550Z,5.90
2022-09-07T20:25:34.663Z,5.17
2022-09-07T20:28:19.786Z,5.10
2022-09-07T20:31:08.328Z,5.07
2022-09-07T20:33:53.601Z,6.20
2022-09-07T20:36:38.686Z,5.10
2022-09-07T20:39:24.013Z,4.77
2022-09-07T20:42:08.940Z,5.50
2022-09-07T20:44:54.699Z,6.83
2022-09-07T20:47:40.197Z,4.73
2022-09-07T20:50:25.382Z,5.13
2022-09-07T20:53:10.298Z,5.50
2022-09-07T20:56:14.015Z,5.03
2022-09-07T20:59:00.954Z,5.03
2022-09-07T21:01:46.625Z,5.20
2022-09-07T21:04:31.777Z,4.90
2022-09-07T21:07:16.798Z,4.93
2022-09-07T21:10:06.068Z,8.23
2022-09-07T21:12:53.186Z,4.90
2022-09-07T21:15:40.063Z,4.40
2022-09-07T21:18:25.262Z,4.47
2022-09-07T21:21:19.729Z,5.20
2022-09-07T21:24:06.618Z,4.93
2022-09-07T21:26:51.985Z,4.50
2022-09-07T21:29:36.882Z,4.33
2022-09-07T21:32:22.239Z,4.77
2022-09-07T21:35:07.883Z,4.23
2022-09-07T21:37:53.031Z,4.37
2022-09-07T21:40:40.733Z,4.93
2022-09-07T21:43:26.022Z,4.57
2022-09-07T21:46:16.747Z,4.70
2022-09-07T21:49:02.756Z,4.27
2022-09-07T21:51:47.867Z,4.17
2022-09-07T21:54:33.006Z,3.97
2022-09-07T21:57:17.904Z,4.00
2022-09-07T22:00:05.543Z,4.20
2022-09-07T22:02:53.815Z,4.13
2022-09-07T22:05:39.022Z,4.37
2022-09-07T22:08:24.019Z,4.10
2022-09-07T22:11:12.479Z,3.53
2022-09-07T22:14:00.464Z,4.23
2022-09-07T22:16:45.575Z,4.07
2022-09-07T22:19:30.439Z,4.40
2022-09-07T22:22:15.358Z,3.97
2022-09-07T22:25:00.232Z,3.80
2022-09-07T22:27:45.186Z,4.83
2022-09-07T22:30:30.004Z,4.33
2022-09-07T22:33:14.910Z,3.53
2022-09-07T22:36:25.618Z,3.40
2022-09-07T22:39:14.785Z,3.87
2022-09-07T22:41:59.553Z,4.20
2022-09-07T22:44:44.611Z,3.33
2022-09-07T22:47:29.678Z,4.03
2022-09-07T22:50:15.055Z,3.73
2022-09-07T22:52:59.995Z,3.60
2022-09-07T22:55:44.924Z,3.27
2022-09-07T22:58:30.177Z,3.50
2022-09-07T23:01:16.352Z,3.60
2022-09-07T23:04:02.385Z,3.97
2022-09-07T23:06:47.494Z,3.20
2022-09-07T23:09:32.382Z,3.43
2022-09-07T23:12:17.436Z,3.30
2022-09-07T23:15:02.334Z,3.70
2022-09-07T23:17:47.387Z,3.30
2022-09-07T23:20:33.726Z,3.07
2022-09-07T23:23:18.778Z,3.40
2022-09-07T23:26:05.522Z,3.03
2022-09-07T23:28:52.441Z,2.77
2022-09-07T23:31:37.670Z,3.47
2022-09-07T23:34:22.866Z,3.93
2022-09-07T23:37:07.769Z,2.80
2022-09-07T23:39:52.758Z,3.47
2022-09-07T23:42:38.155Z,3.03
2022-09-07T23:45:23.066Z,3.40
2022-09-07T23:48:07.978Z,2.60
2022-09-07T23:50:53.358Z,3.70
2022-09-07T23:53:38.706Z,3.13
2022-09-07T23:56:24.610Z,3.13
2022-09-07T23:59:09.947Z,2.97
